LFMD/CEQ METAR and TAF weather

Enter ICAO airport designator
Station Type Date Time Source
LFMD METAR 2019/02/20 17:30 UTC NOAA

LFMD 201730Z AUTO 00000KT CAVOK 09/05 Q1025 NOSIG


Station Type Date Time Source
LFMD Decoded METAR 2019/02/20 17:30 UTC NOAA

Cannes, France (LFMD) 43-33N 006-57E 9M
Feb 20, 2019 - 12:30 PM EST / 2019.02.20 1730 UTC
Wind: Calm:0
Visibility: greater than 7 mile(s):0
Temperature: 48 F (9 C)
Dew Point: 41 F (5 C)
Relative Humidity: 75%
Pressure (altimeter): 30.27 in. Hg (1025 hPa)
ob: LFMD 201730Z AUTO 00000KT CAVOK 09/05 Q1025 NOSIG
cycle: 17

Station Type Date Time Source
LFMD TAF 2019/02/20 17:47 UTC NOAA

TAF
AMD LFMD 201743Z 2017/2115 VRB03KT CAVOK
TEMPO 2113/2115 18010KT


Example: see airport list